sensor_id;sensor_type;location;lat;lon;timestamp;temperature;humidity
49124;DHT22;48506;48.202;16.274;2023-03-31T00:00:56;12.00;94.70
49124;DHT22;48506;48.202;16.274;2023-03-31T00:03:22;12.00;94.70
49124;DHT22;48506;48.202;16.274;2023-03-31T00:05:57;11.90;94.70
49124;DHT22;48506;48.202;16.274;2023-03-31T00:08:24;11.90;94.70
49124;DHT22;48506;48.202;16.274;2023-03-31T00:10:58;11.90;94.80
49124;DHT22;48506;48.202;16.274;2023-03-31T00:13:25;11.80;94.80
49124;DHT22;48506;48.202;16.274;2023-03-31T00:15:59;11.80;94.70
49124;DHT22;48506;48.202;16.274;2023-03-31T00:18:25;11.70;94.80
49124;DHT22;48506;48.202;16.274;2023-03-31T00:20:52;11.70;94.90
49124;DHT22;48506;48.202;16.274;2023-03-31T00:23:19;11.60;94.80
49124;DHT22;48506;48.202;16.274;2023-03-31T00:25:54;11.60;94.90
49124;DHT22;48506;48.202;16.274;2023-03-31T00:28:20;11.60;95.00
49124;DHT22;48506;48.202;16.274;2023-03-31T00:30:47;11.60;95.00
49124;DHT22;48506;48.202;16.274;2023-03-31T00:33:13;11.50;95.10
49124;DHT22;48506;48.202;16.274;2023-03-31T00:35:39;11.50;95.10
49124;DHT22;48506;48.202;16.274;2023-03-31T00:38:05;11.40;95.10
49124;DHT22;48506;48.202;16.274;2023-03-31T00:40:35;11.40;95.20
49124;DHT22;48506;48.202;16.274;2023-03-31T00:43:01;11.40;95.20
49124;DHT22;48506;48.202;16.274;2023-03-31T00:45:29;11.30;95.20
49124;DHT22;48506;48.202;16.274;2023-03-31T00:48:05;11.30;95.30
49124;DHT22;48506;48.202;16.274;2023-03-31T00:50:41;11.20;95.40
49124;DHT22;48506;48.202;16.274;2023-03-31T00:53:16;11.00;95.50
49124;DHT22;48506;48.202;16.274;2023-03-31T00:55:52;11.00;95.60
49124;DHT22;48506;48.202;16.274;2023-03-31T00:58:20;11.10;95.60
49124;DHT22;48506;48.202;16.274;2023-03-31T01:00:55;11.10;95.60
49124;DHT22;48506;48.202;16.274;2023-03-31T01:03:22;11.10;95.60
49124;DHT22;48506;48.202;16.274;2023-03-31T01:06:01;11.00;95.50
49124;DHT22;48506;48.202;16.274;2023-03-31T01:08:32;11.00;95.70
49124;DHT22;48506;48.202;16.274;2023-03-31T01:11:04;11.00;95.70
49124;DHT22;48506;48.202;16.274;2023-03-31T01:13:35;11.00;95.80
49124;DHT22;48506;48.202;16.274;2023-03-31T01:16:01;10.90;95.90
49124;DHT22;48506;48.202;16.274;2023-03-31T01:18:28;10.80;95.90
49124;DHT22;48506;48.202;16.274;2023-03-31T01:21:27;10.80;95.90
49124;DHT22;48506;48.202;16.274;2023-03-31T01:35:00;10.60;96.10
49124;DHT22;48506;48.202;16.274;2023-03-31T01:51:17;10.30;96.80
49124;DHT22;48506;48.202;16.274;2023-03-31T01:56:42;10.30;96.90
49124;DHT22;48506;48.202;16.274;2023-03-31T01:59:13;10.30;96.90
49124;DHT22;48506;48.202;16.274;2023-03-31T02:01:47;10.30;96.90
49124;DHT22;48506;48.202;16.274;2023-03-31T02:04:21;10.40;96.80
49124;DHT22;48506;48.202;16.274;2023-03-31T02:06:55;10.40;96.70
49124;DHT22;48506;48.202;16.274;2023-03-31T02:09:26;10.40;96.70
49124;DHT22;48506;48.202;16.274;2023-03-31T02:11:56;10.30;96.80
49124;DHT22;48506;48.202;16.274;2023-03-31T02:14:25;10.30;96.80
49124;DHT22;48506;48.202;16.274;2023-03-31T02:16:57;10.30;96.80
49124;DHT22;48506;48.202;16.274;2023-03-31T02:19:32;10.30;96.80
49124;DHT22;48506;48.202;16.274;2023-03-31T02:22:00;10.30;96.80
49124;DHT22;48506;48.202;16.274;2023-03-31T02:24:30;10.20;96.70
49124;DHT22;48506;48.202;16.274;2023-03-31T02:29:30;10.10;96.80
49124;DHT22;48506;48.202;16.274;2023-03-31T02:32:10;10.10;97.00
49124;DHT22;48506;48.202;16.274;2023-03-31T02:34:38;10.00;97.20
49124;DHT22;48506;48.202;16.274;2023-03-31T02:37:05;10.00;97.20
49124;DHT22;48506;48.202;16.274;2023-03-31T02:39:35;9.90;97.20
49124;DHT22;48506;48.202;16.274;2023-03-31T02:42:03;9.90;97.40
49124;DHT22;48506;48.202;16.274;2023-03-31T02:44:36;9.80;97.60
49124;DHT22;48506;48.202;16.274;2023-03-31T02:47:06;9.80;97.80
49124;DHT22;48506;48.202;16.274;2023-03-31T02:49:34;9.70;97.90
49124;DHT22;48506;48.202;16.274;2023-03-31T03:09:00;9.50;98.00
49124;DHT22;48506;48.202;16.274;2023-03-31T03:14:27;9.50;98.30
49124;DHT22;48506;48.202;16.274;2023-03-31T03:17:40;9.50;98.30
49124;DHT22;48506;48.202;16.274;2023-03-31T03:20:02;9.50;98.20
49124;DHT22;48506;48.202;16.274;2023-03-31T03:22:35;9.40;98.10
49124;DHT22;48506;48.202;16.274;2023-03-31T03:25:03;9.40;98.10
49124;DHT22;48506;48.202;16.274;2023-03-31T03:27:29;9.40;98.10
49124;DHT22;48506;48.202;16.274;2023-03-31T03:29:55;9.30;98.00
49124;DHT22;48506;48.202;16.274;2023-03-31T03:32:21;9.30;98.10
49124;DHT22;48506;48.202;16.274;2023-03-31T03:34:47;9.20;98.20
49124;DHT22;48506;48.202;16.274;2023-03-31T03:37:13;9.20;98.20
49124;DHT22;48506;48.202;16.274;2023-03-31T03:39:39;9.10;98.20
49124;DHT22;48506;48.202;16.274;2023-03-31T03:42:05;9.10;98.20
49124;DHT22;48506;48.202;16.274;2023-03-31T03:44:31;9.10;98.30
49124;DHT22;48506;48.202;16.274;2023-03-31T03:46:57;9.10;98.20
49124;DHT22;48506;48.202;16.274;2023-03-31T03:49:24;9.00;98.30
49124;DHT22;48506;48.202;16.274;2023-03-31T03:51:50;9.00;98.30
49124;DHT22;48506;48.202;16.274;2023-03-31T03:54:16;9.00;98.40
49124;DHT22;48506;48.202;16.274;2023-03-31T03:56:42;9.00;98.50
49124;DHT22;48506;48.202;16.274;2023-03-31T03:59:10;9.00;98.50
49124;DHT22;48506;48.202;16.274;2023-03-31T04:01:36;9.00;98.40
49124;DHT22;48506;48.202;16.274;2023-03-31T04:04:03;9.00;98.50
49124;DHT22;48506;48.202;16.274;2023-03-31T04:06:29;9.00;98.30
49124;DHT22;48506;48.202;16.274;2023-03-31T04:08:55;9.00;98.30
49124;DHT22;48506;48.202;16.274;2023-03-31T04:11:21;9.00;98.30
49124;DHT22;48506;48.202;16.274;2023-03-31T04:13:47;9.00;98.50
49124;DHT22;48506;48.202;16.274;2023-03-31T04:16:13;8.90;98.30
49124;DHT22;48506;48.202;16.274;2023-03-31T04:18:41;8.90;98.30
49124;DHT22;48506;48.202;16.274;2023-03-31T04:21:11;8.90;98.40
49124;DHT22;48506;48.202;16.274;2023-03-31T04:23:41;8.80;98.30
49124;DHT22;48506;48.202;16.274;2023-03-31T04:26:15;8.70;98.20
49124;DHT22;48506;48.202;16.274;2023-03-31T04:28:42;8.60;98.30
49124;DHT22;48506;48.202;16.274;2023-03-31T04:31:13;8.50;98.60
49124;DHT22;48506;48.202;16.274;2023-03-31T04:33:53;8.40;98.50
49124;DHT22;48506;48.202;16.274;2023-03-31T04:36:20;8.30;98.50
49124;DHT22;48506;48.202;16.274;2023-03-31T04:38:50;8.30;98.60
49124;DHT22;48506;48.202;16.274;2023-03-31T04:41:20;8.20;98.70
49124;DHT22;48506;48.202;16.274;2023-03-31T04:43:46;8.20;98.80
49124;DHT22;48506;48.202;16.274;2023-03-31T04:46:14;8.20;98.80
49124;DHT22;48506;48.202;16.274;2023-03-31T04:48:40;8.20;98.80
49124;DHT22;48506;48.202;16.274;2023-03-31T04:51:07;8.20;98.90
49124;DHT22;48506;48.202;16.274;2023-03-31T04:53:34;8.10;98.80
49124;DHT22;48506;48.202;16.274;2023-03-31T04:56:00;8.10;98.80
49124;DHT22;48506;48.202;16.274;2023-03-31T04:58:26;8.10;98.80
49124;DHT22;48506;48.202;16.274;2023-03-31T05:00:52;8.00;98.80
49124;DHT22;48506;48.202;16.274;2023-03-31T05:03:19;8.00;98.90
49124;DHT22;48506;48.202;16.274;2023-03-31T05:05:46;8.00;98.90
49124;DHT22;48506;48.202;16.274;2023-03-31T05:08:12;7.90;99.10
49124;DHT22;48506;48.202;16.274;2023-03-31T05:10:38;8.00;99.30
49124;DHT22;48506;48.202;16.274;2023-03-31T05:13:04;8.10;99.50
49124;DHT22;48506;48.202;16.274;2023-03-31T05:15:30;8.10;99.50
49124;DHT22;48506;48.202;16.274;2023-03-31T05:17:57;8.20;99.70
49124;DHT22;48506;48.202;16.274;2023-03-31T05:20:23;8.30;99.90
49124;DHT22;48506;48.202;16.274;2023-03-31T05:22:49;8.50;99.90
49124;DHT22;48506;48.202;16.274;2023-03-31T05:25:15;8.60;99.90
49124;DHT22;48506;48.202;16.274;2023-03-31T05:27:47;8.80;99.90
49124;DHT22;48506;48.202;16.274;2023-03-31T05:30:14;8.90;99.90
49124;DHT22;48506;48.202;16.274;2023-03-31T05:32:41;9.00;99.90
49124;DHT22;48506;48.202;16.274;2023-03-31T05:35:08;9.10;99.90
49124;DHT22;48506;48.202;16.274;2023-03-31T05:37:34;9.20;99.90
49124;DHT22;48506;48.202;16.274;2023-03-31T05:40:01;9.40;99.90
49124;DHT22;48506;48.202;16.274;2023-03-31T05:42:29;9.50;99.80
49124;DHT22;48506;48.202;16.274;2023-03-31T05:44:56;9.50;99.70
49124;DHT22;48506;48.202;16.274;2023-03-31T05:47:22;9.60;99.60
49124;DHT22;48506;48.202;16.274;2023-03-31T05:49:48;9.70;99.40
49124;DHT22;48506;48.202;16.274;2023-03-31T05:52:14;9.80;99.40
49124;DHT22;48506;48.202;16.274;2023-03-31T05:54:40;9.80;99.30
49124;DHT22;48506;48.202;16.274;2023-03-31T05:57:08;9.80;99.20
49124;DHT22;48506;48.202;16.274;2023-03-31T05:59:34;9.90;99.10
49124;DHT22;48506;48.202;16.274;2023-03-31T06:02:01;9.90;99.00
49124;DHT22;48506;48.202;16.274;2023-03-31T06:04:28;10.00;99.00
49124;DHT22;48506;48.202;16.274;2023-03-31T06:06:54;10.00;99.10
49124;DHT22;48506;48.202;16.274;2023-03-31T06:09:20;10.20;99.10
49124;DHT22;48506;48.202;16.274;2023-03-31T06:11:47;10.30;99.10
49124;DHT22;48506;48.202;16.274;2023-03-31T06:14:13;10.50;99.00
49124;DHT22;48506;48.202;16.274;2023-03-31T06:16:40;10.70;98.90
49124;DHT22;48506;48.202;16.274;2023-03-31T06:19:05;10.80;98.70
49124;DHT22;48506;48.202;16.274;2023-03-31T06:21:31;11.00;98.50
49124;DHT22;48506;48.202;16.274;2023-03-31T06:23:57;11.10;98.30
49124;DHT22;48506;48.202;16.274;2023-03-31T06:26:25;11.20;98.20
49124;DHT22;48506;48.202;16.274;2023-03-31T06:28:52;11.30;98.10
49124;DHT22;48506;48.202;16.274;2023-03-31T06:31:20;11.40;97.90
49124;DHT22;48506;48.202;16.274;2023-03-31T06:33:47;11.40;97.90
49124;DHT22;48506;48.202;16.274;2023-03-31T06:36:16;11.50;97.80
49124;DHT22;48506;48.202;16.274;2023-03-31T06:38:43;11.70;97.70
49124;DHT22;48506;48.202;16.274;2023-03-31T06:41:12;11.70;97.70
49124;DHT22;48506;48.202;16.274;2023-03-31T06:43:39;11.80;97.30
49124;DHT22;48506;48.202;16.274;2023-03-31T06:46:05;11.90;97.20
49124;DHT22;48506;48.202;16.274;2023-03-31T06:48:33;11.90;97.30
49124;DHT22;48506;48.202;16.274;2023-03-31T06:51:02;11.90;97.30
49124;DHT22;48506;48.202;16.274;2023-03-31T06:53:29;12.00;97.20
49124;DHT22;48506;48.202;16.274;2023-03-31T06:55:56;12.00;97.00
49124;DHT22;48506;48.202;16.274;2023-03-31T06:58:23;12.00;97.00
49124;DHT22;48506;48.202;16.274;2023-03-31T07:00:48;12.00;97.00
49124;DHT22;48506;48.202;16.274;2023-03-31T07:03:15;12.10;97.10
49124;DHT22;48506;48.202;16.274;2023-03-31T07:05:48;12.30;97.00
49124;DHT22;48506;48.202;16.274;2023-03-31T07:08:15;12.40;97.00
49124;DHT22;48506;48.202;16.274;2023-03-31T07:10:45;12.60;96.90
49124;DHT22;48506;48.202;16.274;2023-03-31T07:13:17;12.90;96.30
49124;DHT22;48506;48.202;16.274;2023-03-31T07:15:45;13.00;95.80
49124;DHT22;48506;48.202;16.274;2023-03-31T07:18:12;13.10;95.60
49124;DHT22;48506;48.202;16.274;2023-03-31T07:20:40;13.20;95.50
49124;DHT22;48506;48.202;16.274;2023-03-31T07:23:07;13.30;95.70
49124;DHT22;48506;48.202;16.274;2023-03-31T07:25:34;13.50;95.70
49124;DHT22;48506;48.202;16.274;2023-03-31T07:28:03;13.60;95.40
49124;DHT22;48506;48.202;16.274;2023-03-31T07:30:30;13.70;95.40
49124;DHT22;48506;48.202;16.274;2023-03-31T07:32:57;13.90;95.40
49124;DHT22;48506;48.202;16.274;2023-03-31T07:35:23;14.00;95.30
49124;DHT22;48506;48.202;16.274;2023-03-31T07:37:50;14.10;95.30
49124;DHT22;48506;48.202;16.274;2023-03-31T07:40:22;14.20;95.00
49124;DHT22;48506;48.202;16.274;2023-03-31T07:42:50;14.30;94.80
49124;DHT22;48506;48.202;16.274;2023-03-31T07:45:21;14.40;94.70
49124;DHT22;48506;48.202;16.274;2023-03-31T07:47:48;14.40;94.50
49124;DHT22;48506;48.202;16.274;2023-03-31T07:50:15;14.50;94.50
49124;DHT22;48506;48.202;16.274;2023-03-31T07:52:41;14.70;94.80
49124;DHT22;48506;48.202;16.274;2023-03-31T07:55:08;14.80;94.50
49124;DHT22;48506;48.202;16.274;2023-03-31T07:57:35;15.10;94.40
49124;DHT22;48506;48.202;16.274;2023-03-31T08:00:06;15.40;93.70
49124;DHT22;48506;48.202;16.274;2023-03-31T08:02:34;15.60;93.00
49124;DHT22;48506;48.202;16.274;2023-03-31T08:05:01;15.70;92.90
49124;DHT22;48506;48.202;16.274;2023-03-31T08:07:28;15.90;92.80
49124;DHT22;48506;48.202;16.274;2023-03-31T08:09:56;16.00;92.00
49124;DHT22;48506;48.202;16.274;2023-03-31T08:12:23;15.90;92.20
49124;DHT22;48506;48.202;16.274;2023-03-31T08:14:49;15.90;92.00
49124;DHT22;48506;48.202;16.274;2023-03-31T08:17:17;15.90;91.90
49124;DHT22;48506;48.202;16.274;2023-03-31T08:19:43;16.00;92.00
49124;DHT22;48506;48.202;16.274;2023-03-31T08:22:09;16.10;92.10
49124;DHT22;48506;48.202;16.274;2023-03-31T08:24:35;16.10;91.90
49124;DHT22;48506;48.202;16.274;2023-03-31T08:27:00;16.10;91.40
49124;DHT22;48506;48.202;16.274;2023-03-31T08:29:26;16.10;91.30
49124;DHT22;48506;48.202;16.274;2023-03-31T08:31:53;16.10;91.40
49124;DHT22;48506;48.202;16.274;2023-03-31T08:34:19;16.10;91.30
49124;DHT22;48506;48.202;16.274;2023-03-31T08:36:45;16.00;90.80
49124;DHT22;48506;48.202;16.274;2023-03-31T08:39:12;16.00;91.20
49124;DHT22;48506;48.202;16.274;2023-03-31T08:42:02;16.00;91.10
49124;DHT22;48506;48.202;16.274;2023-03-31T08:44:36;16.10;91.10
49124;DHT22;48506;48.202;16.274;2023-03-31T08:47:06;16.10;90.60
49124;DHT22;48506;48.202;16.274;2023-03-31T08:49:46;16.20;90.60
49124;DHT22;48506;48.202;16.274;2023-03-31T08:52:20;16.20;90.10
49124;DHT22;48506;48.202;16.274;2023-03-31T08:54:56;16.20;90.40
49124;DHT22;48506;48.202;16.274;2023-03-31T08:57:36;16.20;90.60
49124;DHT22;48506;48.202;16.274;2023-03-31T09:00:14;16.30;91.10
49124;DHT22;48506;48.202;16.274;2023-03-31T09:03:53;16.40;90.60
49124;DHT22;48506;48.202;16.274;2023-03-31T09:06:05;16.40;90.50
49124;DHT22;48506;48.202;16.274;2023-03-31T09:08:42;16.30;90.60
49124;DHT22;48506;48.202;16.274;2023-03-31T09:17:32;16.20;90.20
49124;DHT22;48506;48.202;16.274;2023-03-31T09:20:27;16.20;90.30
49124;DHT22;48506;48.202;16.274;2023-03-31T09:25:37;16.10;90.50
49124;DHT22;48506;48.202;16.274;2023-03-31T09:28:16;16.10;90.50
49124;DHT22;48506;48.202;16.274;2023-03-31T09:30:46;16.10;90.80
49124;DHT22;48506;48.202;16.274;2023-03-31T09:33:31;16.20;90.70
49124;DHT22;48506;48.202;16.274;2023-03-31T09:36:01;16.20;90.50
49124;DHT22;48506;48.202;16.274;2023-03-31T09:38:27;16.30;90.90
49124;DHT22;48506;48.202;16.274;2023-03-31T09:41:01;16.30;90.90
49124;DHT22;48506;48.202;16.274;2023-03-31T09:43:29;16.50;91.00
49124;DHT22;48506;48.202;16.274;2023-03-31T09:45:56;16.50;90.80
49124;DHT22;48506;48.202;16.274;2023-03-31T09:48:26;16.60;90.60
49124;DHT22;48506;48.202;16.274;2023-03-31T09:51:01;16.70;90.60
49124;DHT22;48506;48.202;16.274;2023-03-31T09:53:41;16.70;90.40
49124;DHT22;48506;48.202;16.274;2023-03-31T09:56:09;16.80;90.50
49124;DHT22;48506;48.202;16.274;2023-03-31T09:58:44;16.80;90.10
49124;DHT22;48506;48.202;16.274;2023-03-31T10:01:14;16.80;90.00
49124;DHT22;48506;48.202;16.274;2023-03-31T10:03:54;16.80;90.00
49124;DHT22;48506;48.202;16.274;2023-03-31T10:06:22;16.80;89.50
49124;DHT22;48506;48.202;16.274;2023-03-31T10:08:58;16.80;89.70
49124;DHT22;48506;48.202;16.274;2023-03-31T10:11:26;16.80;88.90
49124;DHT22;48506;48.202;16.274;2023-03-31T10:14:04;16.80;88.70
49124;DHT22;48506;48.202;16.274;2023-03-31T10:16:34;16.80;88.50
49124;DHT22;48506;48.202;16.274;2023-03-31T10:21:44;16.80;88.40
49124;DHT22;48506;48.202;16.274;2023-03-31T10:24:21;16.80;88.20
49124;DHT22;48506;48.202;16.274;2023-03-31T10:26:49;16.90;88.50
49124;DHT22;48506;48.202;16.274;2023-03-31T10:29:31;16.90;88.70
49124;DHT22;48506;48.202;16.274;2023-03-31T10:34:45;17.10;88.30
49124;DHT22;48506;48.202;16.274;2023-03-31T10:37:16;17.10;87.60
49124;DHT22;48506;48.202;16.274;2023-03-31T10:39:45;17.10;87.50
49124;DHT22;48506;48.202;16.274;2023-03-31T10:42:22;17.10;87.40
49124;DHT22;48506;48.202;16.274;2023-03-31T10:45:12;17.20;86.80
49124;DHT22;48506;48.202;16.274;2023-03-31T10:47:39;17.20;86.90
49124;DHT22;48506;48.202;16.274;2023-03-31T10:50:14;17.30;86.60
49124;DHT22;48506;48.202;16.274;2023-03-31T10:52:46;17.30;85.30
49124;DHT22;48506;48.202;16.274;2023-03-31T10:55:17;17.20;85.80
49124;DHT22;48506;48.202;16.274;2023-03-31T10:57:57;17.10;86.00
49124;DHT22;48506;48.202;16.274;2023-03-31T11:03:40;17.10;85.80
49124;DHT22;48506;48.202;16.274;2023-03-31T11:06:32;17.10;85.90
49124;DHT22;48506;48.202;16.274;2023-03-31T11:14:49;17.10;85.90
49124;DHT22;48506;48.202;16.274;2023-03-31T11:22:54;17.40;87.30
49124;DHT22;48506;48.202;16.274;2023-03-31T11:33:44;18.60;84.70
49124;DHT22;48506;48.202;16.274;2023-03-31T11:41:51;19.70;84.00
49124;DHT22;48506;48.202;16.274;2023-03-31T11:44:22;20.30;81.30
49124;DHT22;48506;48.202;16.274;2023-03-31T11:46:56;20.70;79.90
49124;DHT22;48506;48.202;16.274;2023-03-31T11:49:30;20.90;77.80
49124;DHT22;48506;48.202;16.274;2023-03-31T11:52:01;21.00;75.70
49124;DHT22;48506;48.202;16.274;2023-03-31T11:57:08;20.70;73.30
49124;DHT22;48506;48.202;16.274;2023-03-31T11:59:39;20.60;74.60
49124;DHT22;48506;48.202;16.274;2023-03-31T12:05:07;20.60;72.40
49124;DHT22;48506;48.202;16.274;2023-03-31T12:07:31;20.40;72.30
49124;DHT22;48506;48.202;16.274;2023-03-31T12:10:28;20.10;72.10
49124;DHT22;48506;48.202;16.274;2023-03-31T12:16:32;19.60;72.40
49124;DHT22;48506;48.202;16.274;2023-03-31T12:21:44;19.10;71.50
49124;DHT22;48506;48.202;16.274;2023-03-31T12:24:13;18.90;72.40
49124;DHT22;48506;48.202;16.274;2023-03-31T12:27:10;18.70;74.40
49124;DHT22;48506;48.202;16.274;2023-03-31T12:29:44;18.60;74.30
49124;DHT22;48506;48.202;16.274;2023-03-31T12:32:18;18.50;74.40
49124;DHT22;48506;48.202;16.274;2023-03-31T12:35:05;18.50;74.40
49124;DHT22;48506;48.202;16.274;2023-03-31T12:38:14;18.40;73.90
49124;DHT22;48506;48.202;16.274;2023-03-31T12:57:22;20.80;69.70
49124;DHT22;48506;48.202;16.274;2023-03-31T13:02:39;21.70;69.80
49124;DHT22;48506;48.202;16.274;2023-03-31T13:08:06;22.70;67.90
49124;DHT22;48506;48.202;16.274;2023-03-31T13:13:16;23.40;64.80
49124;DHT22;48506;48.202;16.274;2023-03-31T13:15:54;23.70;66.20
49124;DHT22;48506;48.202;16.274;2023-03-31T13:18:21;24.00;62.10
49124;DHT22;48506;48.202;16.274;2023-03-31T13:21:02;24.20;62.80
49124;DHT22;48506;48.202;16.274;2023-03-31T13:23:34;24.50;61.20
49124;DHT22;48506;48.202;16.274;2023-03-31T13:26:01;24.60;61.20
49124;DHT22;48506;48.202;16.274;2023-03-31T13:28:40;24.40;59.90
49124;DHT22;48506;48.202;16.274;2023-03-31T13:31:10;24.40;57.90
49124;DHT22;48506;48.202;16.274;2023-03-31T13:33:56;24.30;57.00
49124;DHT22;48506;48.202;16.274;2023-03-31T14:02:22;20.70;56.50
49124;DHT22;48506;48.202;16.274;2023-03-31T14:05:08;20.40;57.70
49124;DHT22;48506;48.202;16.274;2023-03-31T14:07:46;20.20;58.10
49124;DHT22;48506;48.202;16.274;2023-03-31T14:10:36;20.00;59.20
49124;DHT22;48506;48.202;16.274;2023-03-31T14:13:13;19.90;59.70
49124;DHT22;48506;48.202;16.274;2023-03-31T14:16:00;19.70;58.80
49124;DHT22;48506;48.202;16.274;2023-03-31T14:18:32;19.50;59.60
49124;DHT22;48506;48.202;16.274;2023-03-31T14:21:10;19.40;59.80
49124;DHT22;48506;48.202;16.274;2023-03-31T14:23:52;19.30;58.70
49124;DHT22;48506;48.202;16.274;2023-03-31T14:26:37;19.10;59.30
49124;DHT22;48506;48.202;16.274;2023-03-31T14:32:12;18.90;61.30
49124;DHT22;48506;48.202;16.274;2023-03-31T14:37:39;18.70;61.20
49124;DHT22;48506;48.202;16.274;2023-03-31T14:40:08;18.60;61.50
49124;DHT22;48506;48.202;16.274;2023-03-31T14:42:38;18.60;61.90
49124;DHT22;48506;48.202;16.274;2023-03-31T14:45:19;18.50;62.40
49124;DHT22;48506;48.202;16.274;2023-03-31T14:47:57;18.50;63.00
49124;DHT22;48506;48.202;16.274;2023-03-31T14:50:30;18.40;63.80
49124;DHT22;48506;48.202;16.274;2023-03-31T14:52:58;18.40;63.90
49124;DHT22;48506;48.202;16.274;2023-03-31T14:55:28;18.40;64.30
49124;DHT22;48506;48.202;16.274;2023-03-31T14:57:58;18.30;64.10
49124;DHT22;48506;48.202;16.274;2023-03-31T15:00:30;18.20;63.70
49124;DHT22;48506;48.202;16.274;2023-03-31T15:02:59;18.10;63.80
49124;DHT22;48506;48.202;16.274;2023-03-31T15:05:30;18.00;63.90
49124;DHT22;48506;48.202;16.274;2023-03-31T15:08:00;18.00;64.30
49124;DHT22;48506;48.202;16.274;2023-03-31T15:10:32;17.90;64.30
49124;DHT22;48506;48.202;16.274;2023-03-31T15:13:06;17.90;64.30
49124;DHT22;48506;48.202;16.274;2023-03-31T15:15:32;17.80;63.20
49124;DHT22;48506;48.202;16.274;2023-03-31T15:17:58;17.70;62.50
49124;DHT22;48506;48.202;16.274;2023-03-31T15:20:37;17.60;62.70
49124;DHT22;48506;48.202;16.274;2023-03-31T15:23:23;17.30;64.90
49124;DHT22;48506;48.202;16.274;2023-03-31T15:25:56;16.90;68.70
49124;DHT22;48506;48.202;16.274;2023-03-31T15:28:25;16.40;70.80
49124;DHT22;48506;48.202;16.274;2023-03-31T15:30:52;15.90;72.50
49124;DHT22;48506;48.202;16.274;2023-03-31T15:33:41;15.50;74.10
49124;DHT22;48506;48.202;16.274;2023-03-31T15:36:09;15.20;75.50
49124;DHT22;48506;48.202;16.274;2023-03-31T15:38:36;14.80;78.10
49124;DHT22;48506;48.202;16.274;2023-03-31T15:41:03;14.40;80.10
49124;DHT22;48506;48.202;16.274;2023-03-31T15:49:04;13.60;83.80
49124;DHT22;48506;48.202;16.274;2023-03-31T15:51:36;13.60;84.30
49124;DHT22;48506;48.202;16.274;2023-03-31T15:54:32;13.60;84.00
49124;DHT22;48506;48.202;16.274;2023-03-31T15:57:01;13.60;84.80
49124;DHT22;48506;48.202;16.274;2023-03-31T15:59:29;13.60;85.00
49124;DHT22;48506;48.202;16.274;2023-03-31T16:01:57;13.60;85.60
49124;DHT22;48506;48.202;16.274;2023-03-31T16:04:30;13.70;85.70
49124;DHT22;48506;48.202;16.274;2023-03-31T16:07:28;13.60;85.80
49124;DHT22;48506;48.202;16.274;2023-03-31T16:12:40;13.50;86.30
49124;DHT22;48506;48.202;16.274;2023-03-31T16:15:27;13.60;86.70
49124;DHT22;48506;48.202;16.274;2023-03-31T16:18:17;13.60;86.70
49124;DHT22;48506;48.202;16.274;2023-03-31T16:20:56;13.60;86.50
49124;DHT22;48506;48.202;16.274;2023-03-31T16:23:28;13.70;87.20
49124;DHT22;48506;48.202;16.274;2023-03-31T16:25:55;13.80;87.90
49124;DHT22;48506;48.202;16.274;2023-03-31T16:28:35;13.80;88.60
49124;DHT22;48506;48.202;16.274;2023-03-31T16:31:03;13.80;88.30
49124;DHT22;48506;48.202;16.274;2023-03-31T16:33:54;13.90;87.40
49124;DHT22;48506;48.202;16.274;2023-03-31T16:36:20;13.90;86.80
49124;DHT22;48506;48.202;16.274;2023-03-31T16:38:46;13.90;87.40
49124;DHT22;48506;48.202;16.274;2023-03-31T16:41:14;13.90;87.10
49124;DHT22;48506;48.202;16.274;2023-03-31T16:43:44;14.00;87.20
49124;DHT22;48506;48.202;16.274;2023-03-31T16:46:10;13.90;87.20
49124;DHT22;48506;48.202;16.274;2023-03-31T16:48:37;14.00;86.80
49124;DHT22;48506;48.202;16.274;2023-03-31T16:51:03;14.00;87.00
49124;DHT22;48506;48.202;16.274;2023-03-31T16:53:32;14.00;86.40
49124;DHT22;48506;48.202;16.274;2023-03-31T16:55:58;14.00;86.30
49124;DHT22;48506;48.202;16.274;2023-03-31T16:58:25;14.00;86.10
49124;DHT22;48506;48.202;16.274;2023-03-31T17:00:56;14.00;85.60
49124;DHT22;48506;48.202;16.274;2023-03-31T17:03:23;14.00;85.70
49124;DHT22;48506;48.202;16.274;2023-03-31T17:05:54;14.00;85.90
49124;DHT22;48506;48.202;16.274;2023-03-31T17:08:24;14.00;86.90
49124;DHT22;48506;48.202;16.274;2023-03-31T17:11:03;14.00;86.70
49124;DHT22;48506;48.202;16.274;2023-03-31T17:13:30;14.00;86.50
49124;DHT22;48506;48.202;16.274;2023-03-31T17:15:59;14.00;87.10
49124;DHT22;48506;48.202;16.274;2023-03-31T17:18:26;14.00;87.00
49124;DHT22;48506;48.202;16.274;2023-03-31T17:20:53;13.90;86.70
49124;DHT22;48506;48.202;16.274;2023-03-31T17:23:19;13.90;86.80
49124;DHT22;48506;48.202;16.274;2023-03-31T17:25:51;13.80;86.70
49124;DHT22;48506;48.202;16.274;2023-03-31T17:28:19;13.80;86.70
49124;DHT22;48506;48.202;16.274;2023-03-31T17:30:45;13.80;86.50
49124;DHT22;48506;48.202;16.274;2023-03-31T17:33:16;13.70;85.90
49124;DHT22;48506;48.202;16.274;2023-03-31T17:35:44;13.70;85.80
49124;DHT22;48506;48.202;16.274;2023-03-31T17:38:10;13.60;85.90
49124;DHT22;48506;48.202;16.274;2023-03-31T17:40:39;13.60;85.80
49124;DHT22;48506;48.202;16.274;2023-03-31T17:43:06;13.60;85.60
49124;DHT22;48506;48.202;16.274;2023-03-31T17:45:33;13.60;85.80
49124;DHT22;48506;48.202;16.274;2023-03-31T17:48:01;13.60;84.50
49124;DHT22;48506;48.202;16.274;2023-03-31T17:50:28;13.60;83.00
49124;DHT22;48506;48.202;16.274;2023-03-31T17:52:55;13.60;82.70
49124;DHT22;48506;48.202;16.274;2023-03-31T17:55:23;13.60;82.60
49124;DHT22;48506;48.202;16.274;2023-03-31T17:57:49;13.60;82.60
49124;DHT22;48506;48.202;16.274;2023-03-31T18:00:16;13.60;82.20
49124;DHT22;48506;48.202;16.274;2023-03-31T18:02:42;13.60;83.40
49124;DHT22;48506;48.202;16.274;2023-03-31T18:05:10;13.60;82.80
49124;DHT22;48506;48.202;16.274;2023-03-31T18:07:36;13.60;82.60
49124;DHT22;48506;48.202;16.274;2023-03-31T18:10:04;13.60;82.00
49124;DHT22;48506;48.202;16.274;2023-03-31T18:12:31;13.60;82.30
49124;DHT22;48506;48.202;16.274;2023-03-31T18:14:58;13.60;82.30
49124;DHT22;48506;48.202;16.274;2023-03-31T18:17:24;13.70;82.30
49124;DHT22;48506;48.202;16.274;2023-03-31T18:19:51;13.70;81.60
49124;DHT22;48506;48.202;16.274;2023-03-31T18:22:17;13.70;81.90
49124;DHT22;48506;48.202;16.274;2023-03-31T18:24:44;13.70;81.70
49124;DHT22;48506;48.202;16.274;2023-03-31T18:27:11;13.70;81.40
49124;DHT22;48506;48.202;16.274;2023-03-31T18:29:37;13.70;81.70
49124;DHT22;48506;48.202;16.274;2023-03-31T18:32:06;13.80;81.60